createdAt,value
2019-03-19T00:00:31.155Z,1016.68
2019-03-19T00:01:31.103Z,1016.68
2019-03-19T00:02:31.100Z,1016.75
2019-03-19T00:03:31.085Z,1016.76
2019-03-19T00:04:31.068Z,1016.72
2019-03-19T00:05:31.091Z,1016.73
2019-03-19T00:06:31.052Z,1016.73
2019-03-19T00:07:31.039Z,1016.75
2019-03-19T00:08:31.040Z,1016.76
2019-03-19T00:09:31.014Z,1016.80
2019-03-19T00:10:31.000Z,1016.74
2019-03-19T00:11:31.025Z,1016.72
2019-03-19T00:12:30.987Z,1016.74
2019-03-19T00:13:30.975Z,1016.72
2019-03-19T00:14:30.975Z,1016.70
2019-03-19T00:15:30.960Z,1016.73
2019-03-19T00:16:30.975Z,1016.69
2019-03-19T00:17:30.923Z,1016.70
2019-03-19T00:18:30.914Z,1016.71
2019-03-19T00:19:30.916Z,1016.72
2019-03-19T00:20:30.904Z,1016.77
2019-03-19T00:21:30.900Z,1016.75
2019-03-19T00:22:30.879Z,1016.69
2019-03-19T00:23:30.866Z,1016.76
2019-03-19T00:24:30.847Z,1016.78
2019-03-19T00:25:30.845Z,1016.75
2019-03-19T00:26:30.848Z,1016.76
2019-03-19T00:27:30.812Z,1016.78
2019-03-19T00:28:30.801Z,1016.77
2019-03-19T00:29:30.795Z,1016.82
2019-03-19T00:30:30.783Z,1016.83
2019-03-19T00:31:30.815Z,1016.85
2019-03-19T00:32:30.759Z,1016.87
2019-03-19T00:33:30.751Z,1016.93
2019-03-19T00:34:30.745Z,1016.91
2019-03-19T00:35:30.735Z,1016.94
2019-03-19T00:36:30.724Z,1016.93
2019-03-19T00:37:30.731Z,1016.93
2019-03-19T00:38:30.696Z,1016.89
2019-03-19T00:39:30.685Z,1016.88
2019-03-19T00:40:30.731Z,1016.88
2019-03-19T00:41:30.677Z,1016.84
2019-03-19T00:42:30.747Z,1016.88
2019-03-19T00:43:30.658Z,1016.86
2019-03-19T00:44:30.636Z,1016.83
2019-03-19T00:45:30.625Z,1016.86
2019-03-19T00:46:30.675Z,1016.88
2019-03-19T00:47:30.624Z,1016.90
2019-03-19T00:48:30.600Z,1016.91
2019-03-19T00:49:30.579Z,1016.92
2019-03-19T00:50:30.566Z,1016.96
2019-03-19T00:51:30.560Z,1016.91
2019-03-19T00:52:30.575Z,1016.94
2019-03-19T00:53:30.531Z,1016.95
2019-03-19T00:54:30.532Z,1016.95
2019-03-19T00:55:40.259Z,1016.98
2019-03-19T00:56:31.515Z,1016.94
2019-03-19T00:57:30.521Z,1016.92
2019-03-19T00:58:30.502Z,1016.93
2019-03-19T00:59:30.479Z,1016.99
2019-03-19T01:00:30.459Z,1016.98
2019-03-19T01:01:30.462Z,1017.05
2019-03-19T01:02:30.442Z,1016.99
2019-03-19T01:03:30.444Z,1017.03
2019-03-19T01:04:30.411Z,1017.06
2019-03-19T01:05:30.402Z,1017.03
2019-03-19T01:06:30.402Z,1017.04
2019-03-19T01:07:30.380Z,1017.02
2019-03-19T01:08:30.396Z,1017.05
2019-03-19T01:09:30.359Z,1017.06
2019-03-19T01:10:30.353Z,1017.08
2019-03-19T01:11:30.338Z,1017.10
2019-03-19T01:12:30.325Z,1017.15
2019-03-19T01:13:30.354Z,1017.18
2019-03-19T01:14:30.303Z,1017.19
2019-03-19T01:15:30.294Z,1017.23
2019-03-19T01:16:30.294Z,1017.27
2019-03-19T01:17:30.277Z,1017.25
2019-03-19T01:18:30.300Z,1017.24
2019-03-19T01:19:30.253Z,1017.22
2019-03-19T01:20:30.247Z,1017.20
2019-03-19T01:21:30.231Z,1017.21
2019-03-19T01:22:30.220Z,1017.19
2019-03-19T01:23:30.247Z,1017.19
2019-03-19T01:24:30.198Z,1017.17
2019-03-19T01:25:30.189Z,1017.20
2019-03-19T01:26:30.187Z,1017.20
2019-03-19T01:27:30.164Z,1017.19
2019-03-19T01:28:30.181Z,1017.21
2019-03-19T01:29:30.145Z,1017.18
2019-03-19T01:30:30.134Z,1017.19
2019-03-19T01:31:30.130Z,1017.15
2019-03-19T01:32:30.120Z,1017.16
2019-03-19T01:33:30.165Z,1017.16
2019-03-19T01:34:30.091Z,1017.20
2019-03-19T01:35:30.087Z,1017.20
2019-03-19T01:36:30.071Z,1017.22
2019-03-19T01:37:30.061Z,1017.20
2019-03-19T01:38:30.048Z,1017.21
2019-03-19T01:39:30.061Z,1017.20
2019-03-19T01:40:30.028Z,1017.23
2019-03-19T01:41:30.016Z,1017.18
2019-03-19T01:42:30.001Z,1017.21
2019-03-19T01:43:29.992Z,1017.18
2019-03-19T01:44:30.009Z,1017.21
2019-03-19T01:45:29.970Z,1017.20
2019-03-19T01:46:29.961Z,1017.23
2019-03-19T01:47:29.963Z,1017.24
2019-03-19T01:48:29.946Z,1017.25
2019-03-19T01:49:29.965Z,1017.22
2019-03-19T01:50:29.915Z,1017.23
2019-03-19T01:51:29.920Z,1017.24
2019-03-19T01:52:29.897Z,1017.29
2019-03-19T01:53:29.888Z,1017.27
2019-03-19T01:54:29.908Z,1017.26
2019-03-19T01:55:29.870Z,1017.24
2019-03-19T01:56:29.854Z,1017.28
2019-03-19T01:57:29.845Z,1017.26
2019-03-19T01:58:29.839Z,1017.25
2019-03-19T01:59:29.902Z,1017.27
2019-03-19T02:00:29.809Z,1017.22
2019-03-19T02:01:29.800Z,1017.25
2019-03-19T02:02:29.789Z,1017.26
2019-03-19T02:03:29.778Z,1017.26
2019-03-19T02:04:29.802Z,1017.25
2019-03-19T02:05:29.763Z,1017.23
2019-03-19T02:06:29.753Z,1017.23
2019-03-19T02:07:29.730Z,1017.29
2019-03-19T02:08:29.732Z,1017.27
2019-03-19T02:09:29.744Z,1017.30
2019-03-19T02:10:29.736Z,1017.33
2019-03-19T02:11:29.687Z,1017.32
2019-03-19T02:12:29.682Z,1017.33
2019-03-19T02:13:29.679Z,1017.35
2019-03-19T02:14:29.658Z,1017.31
2019-03-19T02:15:29.670Z,1017.35
2019-03-19T02:16:29.655Z,1017.40
2019-03-19T02:17:29.623Z,1017.39
2019-03-19T02:18:29.615Z,1017.41
2019-03-19T02:19:29.603Z,1017.38
2019-03-19T02:20:29.613Z,1017.39
2019-03-19T02:21:29.586Z,1017.43
2019-03-19T02:22:29.567Z,1017.41
2019-03-19T02:23:29.559Z,1017.37
2019-03-19T02:24:29.549Z,1017.43
2019-03-19T02:25:29.566Z,1017.41
2019-03-19T02:26:29.525Z,1017.40
2019-03-19T02:27:29.532Z,1017.43
2019-03-19T02:28:29.503Z,1017.39
2019-03-19T02:29:29.504Z,1017.42
2019-03-19T02:30:29.524Z,1017.47
2019-03-19T02:31:29.474Z,1017.43
2019-03-19T02:32:29.472Z,1017.46
2019-03-19T02:33:29.449Z,1017.49
2019-03-19T02:34:29.446Z,1017.52
2019-03-19T02:35:29.431Z,1017.54
2019-03-19T02:36:29.484Z,1017.60
2019-03-19T02:37:29.419Z,1017.62
2019-03-19T02:38:29.400Z,1017.60
2019-03-19T02:39:29.387Z,1017.64
2019-03-19T02:40:29.403Z,1017.66
2019-03-19T02:41:29.393Z,1017.66
2019-03-19T02:42:29.355Z,1017.66
2019-03-19T02:43:29.343Z,1017.62
2019-03-19T02:44:29.434Z,1017.65
2019-03-19T02:45:29.319Z,1017.65
2019-03-19T02:46:29.347Z,1017.65
2019-03-19T02:47:29.309Z,1017.66
2019-03-19T02:48:29.290Z,1017.68
2019-03-19T02:49:29.279Z,1017.71
2019-03-19T02:50:29.275Z,1017.69
2019-03-19T02:51:29.282Z,1017.73
2019-03-19T02:52:29.259Z,1017.72
2019-03-19T02:53:29.715Z,1017.76
2019-03-19T02:54:29.230Z,1017.81
2019-03-19T02:55:29.225Z,1017.87
2019-03-19T02:56:33.063Z,1017.85
2019-03-19T02:57:29.221Z,1017.85
2019-03-19T02:58:29.181Z,1017.87
2019-03-19T02:59:29.184Z,1017.88
2019-03-19T03:00:29.160Z,1017.85
2019-03-19T03:01:29.179Z,1017.84
2019-03-19T03:02:29.172Z,1017.88
2019-03-19T03:03:29.125Z,1017.83
2019-03-19T03:04:29.124Z,1017.82
2019-03-19T03:05:29.105Z,1017.84
2019-03-19T03:06:29.122Z,1017.84
2019-03-19T03:07:29.089Z,1017.83
2019-03-19T03:08:29.114Z,1017.82
2019-03-19T03:09:29.071Z,1017.90
2019-03-19T03:10:29.048Z,1017.91
2019-03-19T03:11:29.039Z,1017.96
2019-03-19T03:12:29.033Z,1017.97
2019-03-19T03:13:29.052Z,1018.02
2019-03-19T03:14:29.017Z,1017.96
2019-03-19T03:15:28.997Z,1017.99
2019-03-19T03:16:28.982Z,1018.01
2019-03-19T03:17:29.000Z,1018.07
2019-03-19T03:18:28.975Z,1018.02
2019-03-19T03:19:28.955Z,1018.02
2019-03-19T03:20:28.944Z,1017.95
2019-03-19T03:21:28.927Z,1017.99
2019-03-19T03:22:28.979Z,1017.97
2019-03-19T03:23:28.915Z,1018.01
2019-03-19T03:24:28.895Z,1017.98
2019-03-19T03:25:28.883Z,1017.97
2019-03-19T03:26:28.893Z,1017.97
2019-03-19T03:27:28.862Z,1017.96
2019-03-19T03:28:28.887Z,1017.95
2019-03-19T03:29:28.853Z,1017.95
2019-03-19T03:30:28.837Z,1017.99
2019-03-19T03:31:28.822Z,1017.99
2019-03-19T03:32:28.813Z,1017.98
2019-03-19T03:33:28.829Z,1017.98
2019-03-19T03:34:28.805Z,1018.02
2019-03-19T03:35:28.806Z,1017.99
2019-03-19T03:36:28.781Z,1017.99
2019-03-19T03:37:28.758Z,1017.99
2019-03-19T03:38:28.769Z,1017.96
2019-03-19T03:39:28.735Z,1017.99
2019-03-19T03:40:28.721Z,1017.98
2019-03-19T03:41:28.717Z,1017.98
2019-03-19T03:42:28.697Z,1017.99
2019-03-19T03:43:28.810Z,1017.99
2019-03-19T03:44:28.700Z,1018.00
2019-03-19T03:45:28.779Z,1017.99
2019-03-19T03:46:28.657Z,1017.99
2019-03-19T03:47:28.689Z,1018.04
2019-03-19T03:48:28.663Z,1018.02
2019-03-19T03:49:28.676Z,1018.06
2019-03-19T03:50:28.611Z,1018.10
2019-03-19T03:51:28.668Z,1018.01
2019-03-19T03:52:28.598Z,1018.04
2019-03-19T03:53:28.617Z,1018.05
2019-03-19T03:54:28.568Z,1018.00
2019-03-19T03:55:31.114Z,1018.06
2019-03-19T03:56:28.541Z,1018.04
2019-03-19T03:57:28.561Z,1018.08
2019-03-19T03:58:28.525Z,1018.14
2019-03-19T03:59:28.550Z,1018.16
2019-03-19T04:00:28.511Z,1018.13
2019-03-19T04:01:28.491Z,1018.15
2019-03-19T04:02:28.482Z,1018.18
2019-03-19T04:03:28.507Z,1018.23
2019-03-19T04:04:28.478Z,1018.25
2019-03-19T04:05:28.467Z,1018.23
2019-03-19T04:06:28.431Z,1018.27
2019-03-19T04:07:28.420Z,1018.27
2019-03-19T04:08:28.411Z,1018.31
2019-03-19T04:09:28.439Z,1018.32
2019-03-19T04:10:28.390Z,1018.37
2019-03-19T04:11:28.377Z,1018.40
2019-03-19T04:12:28.371Z,1018.39
2019-03-19T04:13:28.360Z,1018.41
2019-03-19T04:14:28.347Z,1018.42
2019-03-19T04:15:28.363Z,1018.47
2019-03-19T04:16:28.321Z,1018.45
2019-03-19T04:17:28.318Z,1018.44
2019-03-19T04:18:28.308Z,1018.45
2019-03-19T04:19:28.293Z,1018.45
2019-03-19T04:20:28.300Z,1018.47
2019-03-19T04:21:28.268Z,1018.45
2019-03-19T04:22:28.268Z,1018.48
2019-03-19T04:23:28.244Z,1018.49
2019-03-19T04:24:28.232Z,1018.46
2019-03-19T04:25:28.258Z,1018.49
2019-03-19T04:26:28.218Z,1018.48
2019-03-19T04:27:28.201Z,1018.48
2019-03-19T04:28:28.194Z,1018.51
2019-03-19T04:29:28.183Z,1018.53
2019-03-19T04:30:28.233Z,1018.55
2019-03-19T04:31:28.163Z,1018.57
2019-03-19T04:32:28.152Z,1018.55
2019-03-19T04:33:28.145Z,1018.54
2019-03-19T04:34:28.123Z,1018.54
2019-03-19T04:35:28.116Z,1018.50
2019-03-19T04:36:28.134Z,1018.48
2019-03-19T04:37:28.100Z,1018.52
2019-03-19T04:38:28.088Z,1018.50
2019-03-19T04:39:28.078Z,1018.55
2019-03-19T04:40:28.082Z,1018.55
2019-03-19T04:41:28.045Z,1018.56
2019-03-19T04:42:28.038Z,1018.58
2019-03-19T04:43:28.022Z,1018.62
2019-03-19T04:44:28.017Z,1018.62
2019-03-19T04:45:28.028Z,1018.62
2019-03-19T04:46:27.989Z,1018.67
2019-03-19T04:47:27.987Z,1018.68
2019-03-19T04:48:27.968Z,1018.68
2019-03-19T04:49:27.955Z,1018.70
2019-03-19T04:50:27.944Z,1018.66
2019-03-19T04:51:27.964Z,1018.65
2019-03-19T04:52:27.923Z,1018.66
2019-03-19T04:53:27.913Z,1018.70
2019-03-19T04:54:27.900Z,1018.69
2019-03-19T04:55:27.890Z,1018.69
2019-03-19T04:56:27.910Z,1018.71
2019-03-19T04:57:27.870Z,1018.67
2019-03-19T04:58:27.865Z,1018.69
2019-03-19T04:59:27.848Z,1018.71
2019-03-19T05:00:27.838Z,1018.71
2019-03-19T05:01:27.850Z,1018.72
2019-03-19T05:02:27.814Z,1018.74
2019-03-19T05:03:27.809Z,1018.79
2019-03-19T05:04:27.798Z,1018.77
2019-03-19T05:05:27.784Z,1018.81
2019-03-19T05:06:27.798Z,1018.80
2019-03-19T05:07:27.766Z,1018.78
2019-03-19T05:08:27.746Z,1018.80
2019-03-19T05:09:27.743Z,1018.81
2019-03-19T05:10:27.781Z,1018.73
2019-03-19T05:11:27.737Z,1018.78
2019-03-19T05:12:27.702Z,1018.72
2019-03-19T05:13:27.698Z,1018.69
2019-03-19T05:14:27.687Z,1018.70
2019-03-19T05:15:27.679Z,1018.67
2019-03-19T05:16:27.697Z,1018.64
2019-03-19T05:17:27.677Z,1018.68
2019-03-19T05:18:27.637Z,1018.67
2019-03-19T05:19:27.625Z,1018.71
2019-03-19T05:20:27.616Z,1018.74
2019-03-19T05:21:27.607Z,1018.74
2019-03-19T05:22:27.630Z,1018.80
2019-03-19T05:23:27.582Z,1018.80
2019-03-19T05:24:27.569Z,1018.84
2019-03-19T05:25:27.560Z,1018.90
2019-03-19T05:26:27.550Z,1018.92
2019-03-19T05:27:37.084Z,1018.95
2019-03-19T05:28:28.528Z,1019.04
2019-03-19T05:29:27.515Z,1019.06
2019-03-19T05:30:27.504Z,1019.07
2019-03-19T05:31:27.495Z,1019.07
2019-03-19T05:32:27.505Z,1019.03
2019-03-19T05:33:27.477Z,1019.02
2019-03-19T05:34:27.476Z,1018.99
2019-03-19T05:35:27.451Z,1018.98
2019-03-19T05:36:27.441Z,1018.97
2019-03-19T05:37:27.458Z,1019.01
2019-03-19T05:38:27.416Z,1019.00
2019-03-19T05:39:27.406Z,1018.99
2019-03-19T05:40:27.403Z,1019.03
2019-03-19T05:41:27.386Z,1019.04
2019-03-19T05:42:27.446Z,1019.07
2019-03-19T05:43:27.360Z,1019.06
2019-03-19T05:44:27.355Z,1019.07
2019-03-19T05:45:27.344Z,1019.02
2019-03-19T05:46:27.328Z,1019.06
2019-03-19T05:47:36.785Z,1019.05
2019-03-19T05:48:28.329Z,1019.04
2019-03-19T05:49:27.409Z,1019.05
2019-03-19T05:50:27.304Z,1019.07
2019-03-19T05:51:27.384Z,1019.12
2019-03-19T05:52:27.301Z,1019.10
2019-03-19T05:53:27.313Z,1019.13
2019-03-19T05:54:27.243Z,1019.18
2019-03-19T05:55:27.233Z,1019.14
2019-03-19T05:56:27.225Z,1019.15
2019-03-19T05:57:27.207Z,1019.16
2019-03-19T05:58:27.245Z,1019.16
2019-03-19T05:59:27.189Z,1019.16
2019-03-19T06:00:27.187Z,1019.18
2019-03-19T06:01:27.173Z,1019.21
2019-03-19T06:02:27.151Z,1019.23
2019-03-19T06:03:27.171Z,1019.26
2019-03-19T06:04:27.130Z,1019.29
2019-03-19T06:05:27.126Z,1019.28
2019-03-19T06:06:27.109Z,1019.28
2019-03-19T06:07:27.148Z,1019.30
2019-03-19T06:08:27.121Z,1019.28
2019-03-19T06:09:27.140Z,1019.29
2019-03-19T06:10:27.063Z,1019.31
2019-03-19T06:11:27.063Z,1019.28
2019-03-19T06:12:27.041Z,1019.30
2019-03-19T06:13:27.060Z,1019.32
2019-03-19T06:14:27.023Z,1019.30
2019-03-19T06:15:27.012Z,1019.31
2019-03-19T06:16:26.999Z,1019.31
2019-03-19T06:17:26.994Z,1019.35
2019-03-19T06:18:35.200Z,1019.34
2019-03-19T06:19:27.997Z,1019.42
2019-03-19T06:20:26.959Z,1019.41
2019-03-19T06:21:26.946Z,1019.43
2019-03-19T06:22:26.996Z,1019.47
2019-03-19T06:23:26.920Z,1019.49
2019-03-19T06:24:26.936Z,1019.51
2019-03-19T06:25:26.918Z,1019.52
2019-03-19T06:26:26.888Z,1019.51
2019-03-19T06:27:26.876Z,1019.58
2019-03-19T06:28:26.865Z,1019.61
2019-03-19T06:29:26.882Z,1019.63
2019-03-19T06:30:26.847Z,1019.63
2019-03-19T06:31:26.833Z,1019.60
2019-03-19T06:32:26.826Z,1019.62
2019-03-19T06:33:26.813Z,1019.67
2019-03-19T06:34:26.843Z,1019.69
2019-03-19T06:35:26.795Z,1019.72
2019-03-19T06:36:26.787Z,1019.72
2019-03-19T06:37:26.771Z,1019.76
2019-03-19T06:38:26.760Z,1019.73
2019-03-19T06:39:26.774Z,1019.76
2019-03-19T06:40:26.739Z,1019.77
2019-03-19T06:41:26.728Z,1019.79
2019-03-19T06:42:26.712Z,1019.79
2019-03-19T06:43:26.703Z,1019.80
2019-03-19T06:44:26.718Z,1019.80
2019-03-19T06:45:26.707Z,1019.78
2019-03-19T06:46:26.672Z,1019.80
2019-03-19T06:47:26.659Z,1019.80
2019-03-19T06:48:26.646Z,1019.81
2019-03-19T06:49:26.656Z,1019.82
2019-03-19T06:50:28.083Z,1019.85
2019-03-19T06:51:26.609Z,1019.84
2019-03-19T06:52:26.601Z,1019.87
2019-03-19T06:53:26.586Z,1019.88
2019-03-19T06:54:26.582Z,1019.89
2019-03-19T06:55:26.590Z,1019.88
2019-03-19T06:56:26.562Z,1019.88
2019-03-19T06:57:26.543Z,1019.88
2019-03-19T06:58:26.535Z,1019.82
2019-03-19T06:59:26.535Z,1019.81
2019-03-19T07:00:26.541Z,1019.80
2019-03-19T07:01:26.502Z,1019.77
2019-03-19T07:02:26.488Z,1019.79
2019-03-19T07:03:26.485Z,1019.76
2019-03-19T07:04:26.469Z,1019.82
2019-03-19T07:05:26.479Z,1019.75
2019-03-19T07:06:26.454Z,1019.77
2019-03-19T07:07:26.431Z,1019.82
2019-03-19T07:08:26.436Z,1019.85
2019-03-19T07:09:26.419Z,1019.80
2019-03-19T07:10:26.435Z,1019.83
2019-03-19T07:11:26.387Z,1019.87
2019-03-19T07:12:26.392Z,1019.89
2019-03-19T07:13:26.366Z,1019.87
2019-03-19T07:14:26.365Z,1019.91
2019-03-19T07:15:26.369Z,1019.92
2019-03-19T07:16:26.346Z,1019.90
2019-03-19T07:17:26.328Z,1019.97
2019-03-19T07:18:26.318Z,1019.94
2019-03-19T07:19:26.316Z,1019.95
2019-03-19T07:20:26.328Z,1019.94
2019-03-19T07:21:26.297Z,1019.98
2019-03-19T07:22:26.273Z,1019.97
2019-03-19T07:23:26.275Z,1020.00
2019-03-19T07:24:26.253Z,1019.99
2019-03-19T07:25:26.247Z,1020.04
2019-03-19T07:26:26.257Z,1020.06
2019-03-19T07:27:26.225Z,1020.04
2019-03-19T07:28:26.202Z,1020.06
2019-03-19T07:29:26.195Z,1020.10
2019-03-19T07:30:26.215Z,1020.09
2019-03-19T07:31:30.672Z,1020.08
2019-03-19T07:32:27.216Z,1020.11
2019-03-19T07:33:26.149Z,1020.13
2019-03-19T07:34:26.134Z,1020.17
2019-03-19T07:35:26.131Z,1020.17
2019-03-19T07:36:26.159Z,1020.18
2019-03-19T07:37:26.108Z,1020.20
2019-03-19T07:38:26.102Z,1020.22
2019-03-19T07:39:26.079Z,1020.26
2019-03-19T07:40:26.075Z,1020.29
2019-03-19T07:41:26.089Z,1020.27
2019-03-19T07:42:26.052Z,1020.29
2019-03-19T07:43:26.038Z,1020.29
2019-03-19T07:44:26.030Z,1020.30
2019-03-19T07:45:26.015Z,1020.31
2019-03-19T07:46:26.041Z,1020.35
2019-03-19T07:47:26.002Z,1020.35
2019-03-19T07:48:25.994Z,1020.35
2019-03-19T07:49:25.978Z,1020.33
2019-03-19T07:50:25.967Z,1020.39
2019-03-19T07:51:26.238Z,1020.39
2019-03-19T07:52:25.963Z,1020.39
2019-03-19T07:53:25.934Z,1020.44
2019-03-19T07:54:25.929Z,1020.45
2019-03-19T07:55:25.917Z,1020.47
2019-03-19T07:56:25.933Z,1020.44
2019-03-19T07:57:25.885Z,1020.45
2019-03-19T07:58:36.103Z,1020.41
2019-03-19T07:59:26.878Z,1020.43
2019-03-19T08:00:25.863Z,1020.43
2019-03-19T08:01:25.857Z,1020.42
2019-03-19T08:02:25.854Z,1020.40
2019-03-19T08:03:25.826Z,1020.41
2019-03-19T08:04:25.815Z,1020.39
2019-03-19T08:05:33.043Z,1020.39
2019-03-19T08:06:26.785Z,1020.45
2019-03-19T08:07:25.805Z,1020.46
2019-03-19T08:08:25.772Z,1020.48
2019-03-19T08:09:25.827Z,1020.50
2019-03-19T08:10:25.741Z,1020.57
2019-03-19T08:11:25.732Z,1020.61
2019-03-19T08:12:25.772Z,1020.64
2019-03-19T08:13:25.714Z,1020.64
2019-03-19T08:14:25.699Z,1020.69
2019-03-19T08:15:25.688Z,1020.66
2019-03-19T08:16:27.711Z,1020.68
2019-03-19T08:17:25.688Z,1020.68
2019-03-19T08:18:25.674Z,1020.69
2019-03-19T08:19:25.636Z,1020.69
2019-03-19T08:20:25.628Z,1020.75
2019-03-19T08:21:25.616Z,1020.79
2019-03-19T08:22:25.603Z,1020.80
2019-03-19T08:23:25.661Z,1020.80
2019-03-19T08:24:25.586Z,1020.81
2019-03-19T08:25:25.575Z,1020.80
2019-03-19T08:26:25.565Z,1020.83
2019-03-19T08:27:25.573Z,1020.77
2019-03-19T08:28:25.566Z,1020.77
2019-03-19T08:29:25.531Z,1020.77
2019-03-19T08:30:25.518Z,1020.80
2019-03-19T08:31:25.503Z,1020.81
2019-03-19T08:32:25.498Z,1020.82
2019-03-19T08:33:25.505Z,1020.87
2019-03-19T08:34:25.494Z,1020.90
2019-03-19T08:35:25.460Z,1020.87
2019-03-19T08:36:25.450Z,1020.85
2019-03-19T08:37:25.444Z,1020.85
2019-03-19T08:38:26.530Z,1020.86
2019-03-19T08:39:25.423Z,1020.86
2019-03-19T08:40:25.401Z,1020.90
2019-03-19T08:41:25.391Z,1020.92
2019-03-19T08:42:25.379Z,1020.91
2019-03-19T08:43:25.401Z,1020.94
2019-03-19T08:44:27.912Z,1020.92
2019-03-19T08:45:25.349Z,1020.97
2019-03-19T08:46:25.334Z,1020.98
2019-03-19T08:47:25.327Z,1020.99
2019-03-19T08:48:25.312Z,1020.87
2019-03-19T08:49:25.326Z,1020.92
2019-03-19T08:50:25.311Z,1020.96
2019-03-19T08:51:25.322Z,1020.98
2019-03-19T08:52:25.306Z,1020.94
2019-03-19T08:53:25.276Z,1021.01
2019-03-19T08:54:25.382Z,1020.99
2019-03-19T08:55:25.318Z,1020.97
2019-03-19T08:56:25.255Z,1021.00
2019-03-19T08:57:25.211Z,1020.99
2019-03-19T08:58:25.300Z,1021.00
2019-03-19T08:59:25.236Z,1021.05
2019-03-19T09:00:25.187Z,1021.05
2019-03-19T09:01:25.316Z,1021.07
2019-03-19T09:02:25.275Z,1021.06
2019-03-19T09:03:25.179Z,1021.05
2019-03-19T09:04:25.192Z,1021.02
2019-03-19T09:05:25.122Z,1021.02
2019-03-19T09:06:25.116Z,1021.05
2019-03-19T09:07:25.103Z,1021.04
2019-03-19T09:08:25.086Z,1021.02
2019-03-19T09:09:25.099Z,1021.08
2019-03-19T09:10:25.123Z,1021.06
2019-03-19T09:11:25.086Z,1021.07
2019-03-19T09:12:25.053Z,1021.07
2019-03-19T09:13:25.338Z,1021.07
2019-03-19T09:14:25.144Z,1021.08
2019-03-19T09:15:25.054Z,1021.12
2019-03-19T09:16:24.998Z,1021.12
2019-03-19T09:17:24.989Z,1021.05
2019-03-19T09:18:24.981Z,1021.08
2019-03-19T09:19:24.990Z,1021.01
2019-03-19T09:20:24.963Z,1021.02
2019-03-19T09:21:24.949Z,1020.99
2019-03-19T09:22:29.675Z,1021.04
2019-03-19T09:23:25.924Z,1021.04
2019-03-19T09:24:24.920Z,1021.07
2019-03-19T09:25:24.929Z,1021.12
2019-03-19T09:26:24.888Z,1021.16
2019-03-19T09:27:24.878Z,1021.14
2019-03-19T09:28:24.866Z,1021.13
2019-03-19T09:29:25.500Z,1021.11
2019-03-19T09:30:24.858Z,1021.09
2019-03-19T09:31:24.839Z,1021.05
2019-03-19T09:32:24.853Z,1021.05
2019-03-19T09:33:24.812Z,1021.08
2019-03-19T09:34:24.803Z,1021.03
2019-03-19T09:35:26.242Z,1021.03
2019-03-19T09:36:24.791Z,1021.00
2019-03-19T09:37:24.783Z,1021.03
2019-03-19T09:38:24.773Z,1021.07
2019-03-19T09:39:24.779Z,1021.05
2019-03-19T09:40:24.759Z,1021.06
2019-03-19T09:41:24.723Z,1021.12
2019-03-19T09:42:24.747Z,1021.03
2019-03-19T09:43:24.701Z,1021.05
2019-03-19T09:44:24.696Z,1021.00
2019-03-19T09:45:24.709Z,1020.97
2019-03-19T09:46:24.672Z,1020.96
2019-03-19T09:47:24.664Z,1020.96
2019-03-19T09:48:24.656Z,1021.00
2019-03-19T09:49:24.646Z,1020.98
2019-03-19T09:50:24.679Z,1021.01
2019-03-19T09:51:24.622Z,1021.04
2019-03-19T09:52:24.602Z,1021.07
2019-03-19T09:53:24.597Z,1021.09
2019-03-19T09:54:24.585Z,1021.11
2019-03-19T09:55:24.596Z,1021.09
2019-03-19T09:56:24.566Z,1021.13
2019-03-19T09:57:24.594Z,1021.16
2019-03-19T09:58:24.537Z,1021.18
2019-03-19T09:59:27.255Z,1021.21
2019-03-19T10:00:24.517Z,1021.21
2019-03-19T10:01:24.527Z,1021.20
2019-03-19T10:02:24.501Z,1021.14
2019-03-19T10:03:24.510Z,1021.17
2019-03-19T10:04:24.513Z,1021.16
2019-03-19T10:05:24.467Z,1021.19
2019-03-19T10:06:24.485Z,1021.19
2019-03-19T10:07:24.444Z,1021.20
2019-03-19T10:08:24.428Z,1021.23
2019-03-19T10:09:24.415Z,1021.22
2019-03-19T10:10:24.459Z,1021.21
2019-03-19T10:11:24.431Z,1021.21
2019-03-19T10:12:24.386Z,1021.23
2019-03-19T10:13:24.376Z,1021.25
2019-03-19T10:14:24.360Z,1021.26
2019-03-19T10:15:24.355Z,1021.34
2019-03-19T10:16:24.348Z,1021.40
2019-03-19T10:17:24.362Z,1021.43
2019-03-19T10:18:24.361Z,1021.43
2019-03-19T10:19:24.311Z,1021.49
2019-03-19T10:20:24.297Z,1021.47
2019-03-19T10:21:24.298Z,1021.48
2019-03-19T10:22:24.311Z,1021.45
2019-03-19T10:23:24.272Z,1021.40
2019-03-19T10:24:24.258Z,1021.43
2019-03-19T10:25:24.239Z,1021.38
2019-03-19T10:26:24.226Z,1021.36
2019-03-19T10:27:24.241Z,1021.24
2019-03-19T10:28:24.204Z,1021.32
2019-03-19T10:29:24.197Z,1021.25
2019-03-19T10:30:24.235Z,1021.26
2019-03-19T10:31:24.178Z,1021.29
2019-03-19T10:32:24.192Z,1021.35
2019-03-19T10:33:24.203Z,1021.32
2019-03-19T10:34:24.147Z,1021.33
2019-03-19T10:35:24.130Z,1021.31
2019-03-19T10:36:24.137Z,1021.36
2019-03-19T10:37:24.102Z,1021.35
2019-03-19T10:38:24.123Z,1021.34
2019-03-19T10:39:24.090Z,1021.25
2019-03-19T10:40:24.073Z,1021.38
2019-03-19T10:41:24.065Z,1021.33
2019-03-19T10:42:24.055Z,1021.31
2019-03-19T10:43:24.061Z,1021.23
2019-03-19T10:44:24.031Z,1021.23
2019-03-19T10:45:24.025Z,1021.36
2019-03-19T10:46:24.015Z,1021.36
2019-03-19T10:47:24.021Z,1021.32
2019-03-19T10:48:24.011Z,1021.39
2019-03-19T10:49:24.009Z,1021.49
2019-03-19T10:50:23.969Z,1021.49
2019-03-19T10:51:23.955Z,1021.46
2019-03-19T10:52:23.938Z,1021.54
2019-03-19T10:53:23.965Z,1021.48
2019-03-19T10:54:23.923Z,1021.52
2019-03-19T10:55:23.924Z,1021.54
2019-03-19T10:56:23.921Z,1021.52
2019-03-19T10:57:23.896Z,1021.49
2019-03-19T10:58:23.974Z,1021.53
2019-03-19T10:59:23.894Z,1021.46
2019-03-19T11:00:23.924Z,1021.57
2019-03-19T11:01:23.847Z,1021.57
2019-03-19T11:02:23.822Z,1021.52
2019-03-19T11:03:23.813Z,1021.51
2019-03-19T11:04:23.943Z,1021.56
2019-03-19T11:05:23.795Z,1021.55
2019-03-19T11:06:23.777Z,1021.54
2019-03-19T11:07:23.779Z,1021.54
2019-03-19T11:08:23.792Z,1021.51
2019-03-19T11:09:23.742Z,1021.57
2019-03-19T11:10:23.769Z,1021.56
2019-03-19T11:11:23.720Z,1021.56
2019-03-19T11:12:23.712Z,1021.51
2019-03-19T11:13:23.764Z,1021.56
2019-03-19T11:14:23.757Z,1021.57
2019-03-19T11:15:23.681Z,1021.54
2019-03-19T11:16:23.668Z,1021.58
2019-03-19T11:17:23.666Z,1021.61
2019-03-19T11:18:23.645Z,1021.65
2019-03-19T11:19:23.693Z,1021.58
2019-03-19T11:20:23.643Z,1021.61
2019-03-19T11:21:23.635Z,1021.60
2019-03-19T11:22:23.622Z,1021.57
2019-03-19T11:23:23.603Z,1021.59
2019-03-19T11:24:23.583Z,1021.59
2019-03-19T11:25:23.597Z,1021.57
2019-03-19T11:26:23.559Z,1021.54
2019-03-19T11:27:23.572Z,1021.51
2019-03-19T11:28:23.600Z,1021.48
2019-03-19T11:29:23.547Z,1021.52
2019-03-19T11:30:23.544Z,1021.50
2019-03-19T11:31:23.498Z,1021.52
2019-03-19T11:32:23.487Z,1021.49
2019-03-19T11:33:23.478Z,1021.54
2019-03-19T11:34:23.505Z,1021.54
2019-03-19T11:35:23.486Z,1021.56
2019-03-19T11:36:23.491Z,1021.48
2019-03-19T11:37:23.431Z,1021.47
2019-03-19T11:38:23.419Z,1021.55
2019-03-19T11:39:23.411Z,1021.54
2019-03-19T11:40:25.645Z,1021.48
2019-03-19T11:41:23.409Z,1021.52
2019-03-19T11:42:23.374Z,1021.55
2019-03-19T11:43:23.365Z,1021.62
2019-03-19T11:44:23.356Z,1021.56
2019-03-19T11:45:23.342Z,1021.57
2019-03-19T11:46:23.375Z,1021.54
2019-03-19T11:47:23.323Z,1021.56
2019-03-19T11:48:23.316Z,1021.57
2019-03-19T11:49:23.298Z,1021.56
2019-03-19T11:50:23.315Z,1021.54
2019-03-19T11:51:23.274Z,1021.52
2019-03-19T11:52:23.277Z,1021.51
2019-03-19T11:53:23.259Z,1021.56
2019-03-19T11:54:23.248Z,1021.52
2019-03-19T11:55:23.254Z,1021.56
2019-03-19T11:56:23.220Z,1021.61
2019-03-19T11:57:23.213Z,1021.58
2019-03-19T11:58:23.202Z,1021.62
2019-03-19T11:59:23.197Z,1021.57
2019-03-19T12:00:23.214Z,1021.65
2019-03-19T12:01:23.166Z,1021.60
2019-03-19T12:02:26.182Z,1021.52
2019-03-19T12:03:23.149Z,1021.52
2019-03-19T12:04:23.134Z,1021.53
2019-03-19T12:05:23.152Z,1021.54